Time;durP1;ratioP1;P1;durP2;ratioP2;P2;SDS_P1;SDS_P2;PMS_P1;PMS_P2;Temp;Humidity;BMP_temperature;BMP_pressure;BME280_temperature;BME280_humidity;BME280_pressure;Samples;Min_cycle;Max_cycle;Signal;HPM_P1;HPM_P2
2021/09/20 00:00:34;;;;;;;3.00;2.80;;;13.90;94.20;;;;;;5033783;28;20687;-94
2021/09/20 00:06:16;;;;;;;3.28;2.97;;;13.80;93.80;;;;;;5016391;28;20217;-93
2021/09/20 00:08:43;;;;;;;3.70;3.40;;;13.80;93.40;;;;;;5047145;28;20248;-93
2021/09/20 00:11:10;;;;;;;4.13;3.17;;;13.70;93.70;;;;;;5038882;28;20195;-92
2021/09/20 00:13:38;;;;;;;3.10;2.78;;;13.70;93.90;;;;;;5035943;28;20729;-93
2021/09/20 00:16:05;;;;;;;3.17;2.75;;;13.80;93.90;;;;;;5036160;28;20761;-94
2021/09/20 00:21:38;;;;;;;2.63;2.42;;;13.70;94.00;;;;;;5033620;28;20684;-93
2021/09/20 00:24:05;;;;;;;2.72;2.53;;;13.60;94.20;;;;;;5029378;28;20218;-92
2021/09/20 00:26:32;;;;;;;3.15;2.85;;;13.70;94.20;;;;;;5036361;28;20670;-93
2021/09/20 00:28:59;;;;;;;3.17;2.78;;;13.80;93.70;;;;;;5036469;28;20230;-93
2021/09/20 00:34:11;;;;;;;3.17;2.85;;;13.70;94.00;;;;;;5027901;28;20219;-93
2021/09/20 00:36:38;;;;;;;2.80;2.60;;;13.70;93.90;;;;;;5033966;28;20597;-93
2021/09/20 00:39:05;;;;;;;3.30;3.00;;;13.80;94.00;;;;;;5040041;28;20305;-93
2021/09/20 00:41:32;;;;;;;3.95;3.55;;;13.90;93.60;;;;;;5037707;28;20226;-93
2021/09/20 00:44:00;;;;;;;4.32;3.85;;;13.80;93.50;;;;;;5038486;28;20222;-93
2021/09/20 00:46:27;;;;;;;3.90;3.22;;;13.80;93.50;;;;;;5046402;28;20297;-93
2021/09/20 00:48:54;;;;;;;3.30;3.00;;;13.70;93.40;;;;;;5044573;28;20218;-93
2021/09/20 00:51:22;;;;;;;2.95;2.75;;;13.60;93.60;;;;;;5039996;28;20201;-93
2021/09/20 00:53:49;;;;;;;2.95;2.67;;;13.60;93.70;;;;;;5036845;28;20279;-93
2021/09/20 01:02:20;;;;;;;4.03;3.70;;;13.60;94.20;;;;;;5036783;28;20257;-93
2021/09/20 01:04:47;;;;;;;3.78;3.33;;;13.70;93.80;;;;;;5039679;28;20226;-92
2021/09/20 01:09:56;;;;;;;3.05;2.85;;;13.70;93.90;;;;;;5042861;28;20780;-93
2021/09/20 01:20:29;;;;;;;3.63;3.33;;;13.60;93.90;;;;;;4987487;28;20272;-93
2021/09/20 01:25:42;;;;;;;2.83;2.63;;;13.60;93.70;;;;;;5034907;28;20206;-94
2021/09/20 01:28:28;;;;;;;3.10;2.80;;;13.50;93.90;;;;;;5021151;28;20637;-94
2021/09/20 01:33:36;;;;;;;3.42;3.13;;;13.50;93.70;;;;;;5006902;28;20222;-93
2021/09/20 01:38:45;;;;;;;3.30;3.00;;;13.50;93.80;;;;;;5035709;28;20249;-93
2021/09/20 01:41:12;;;;;;;3.05;2.85;;;13.50;93.90;;;;;;5040368;28;20238;-93
2021/09/20 01:43:39;;;;;;;3.70;3.40;;;13.50;93.90;;;;;;5038777;28;20265;-92
2021/09/20 01:46:06;;;;;;;3.20;2.90;;;13.50;94.30;;;;;;5037187;28;20289;-92
2021/09/20 01:48:33;;;;;;;2.92;2.72;;;13.50;94.10;;;;;;5038655;28;20230;-93
2021/09/20 01:51:00;;;;;;;4.13;3.15;;;13.60;94.30;;;;;;5042753;28;20405;-93
2021/09/20 01:53:27;;;;;;;4.30;3.58;;;13.60;93.90;;;;;;5045919;28;20271;-93
2021/09/20 01:55:55;;;;;;;6.28;5.68;;;13.60;93.90;;;;;;5046362;28;20226;-93
2021/09/20 01:58:43;;;;;;;5.93;5.38;;;13.60;92.70;;;;;;5032086;28;20228;-93
2021/09/20 02:01:10;;;;;;;6.65;6.05;;;13.60;92.60;;;;;;5051496;28;20266;-93
2021/09/20 02:03:37;;;;;;;6.60;6.00;;;13.50;92.40;;;;;;5052582;28;20684;-93
2021/09/20 02:06:03;;;;;;;6.70;6.10;;;13.50;92.50;;;;;;5043236;28;20202;-93
2021/09/20 02:08:43;;;;;;;7.45;6.30;;;13.60;92.40;;;;;;5054522;28;20297;-92
2021/09/20 03:18:54;;;;;;;8.30;7.50;;;13.10;92.60;;;;;;4928034;29;20214;-93
2021/09/20 04:04:16;;;;;;;10.43;8.70;;;12.80;93.10;;;;;;4842302;29;20267;-92
2021/09/20 04:33:59;;;;;;;9.70;8.70;;;12.90;92.50;;;;;;4899816;29;20240;-94
2021/09/20 04:39:49;;;;;;;9.77;8.68;;;12.70;92.50;;;;;;4946543;28;20204;-94
2021/09/20 04:42:36;;;;;;;11.30;9.20;;;12.70;92.60;;;;;;5008493;28;20573;-94
2021/09/20 04:48:39;;;;;;;11.27;9.30;;;12.70;92.70;;;;;;4996147;28;20263;-94
2021/09/20 05:05:17;;;;;;;12.32;9.50;;;12.50;92.70;;;;;;5038050;28;20227;-93
2021/09/20 05:17:54;;;;;;;10.85;9.77;;;12.50;92.40;;;;;;5053082;28;20256;-93
2021/09/20 05:27:58;;;;;;;10.82;9.63;;;12.70;92.70;;;;;;5398775;23;20247;-93
2021/09/20 05:30:41;;;;;;;12.27;10.13;;;12.60;92.30;;;;;;5092713;28;20194;-92
2021/09/20 05:43:15;;;;;;;12.82;11.43;;;12.70;92.70;;;;;;5031654;28;20278;-89
2021/09/20 06:12:51;;;;;;;12.45;9.45;;;12.60;90.90;;;;;;5035606;22;20271;-89
2021/09/20 06:15:21;;;;;;;12.40;10.38;;;12.70;91.40;;;;;;5080745;28;20221;-88
2021/09/20 06:28:13;;;;;;;13.38;10.30;;;12.70;90.90;;;;;;5072765;28;20634;-90
2021/09/20 06:30:40;;;;;;;13.52;9.27;;;12.60;90.90;;;;;;5074443;28;20227;-88
2021/09/20 06:33:11;;;;;;;11.82;10.23;;;12.60;90.90;;;;;;5089911;28;20207;-89
2021/09/20 06:35:41;;;;;;;10.70;9.45;;;12.70;90.90;;;;;;5107051;28;20563;-90
2021/09/20 06:38:24;;;;;;;10.13;9.07;;;12.80;90.30;;;;;;5094143;28;20229;-89
2021/09/20 06:44:17;;;;;;;12.85;9.68;;;12.70;90.20;;;;;;5020383;28;20305;-93
2021/09/20 06:46:46;;;;;;;11.02;9.65;;;12.80;90.10;;;;;;5099517;28;20196;-91
2021/09/20 06:49:15;;;;;;;12.40;10.10;;;12.80;90.40;;;;;;5091330;28;20312;-89
2021/09/20 06:51:44;;;;;;;11.02;9.90;;;12.80;90.70;;;;;;5086591;28;20194;-90
2021/09/20 06:54:42;;;;;;;11.85;10.63;;;12.90;90.70;;;;;;5056255;28;20206;-93
2021/09/20 06:57:11;;;;;;;14.95;11.07;;;12.80;90.60;;;;;;5075221;28;20217;-91
2021/09/20 06:59:42;;;;;;;12.48;10.98;;;12.70;90.90;;;;;;5090842;28;20308;-88
2021/09/20 07:02:09;;;;;;;13.10;11.65;;;12.70;91.00;;;;;;5085817;28;20221;-88
2021/09/20 07:04:37;;;;;;;13.05;10.68;;;12.90;91.00;;;;;;5096984;28;20307;-88
2021/09/20 07:07:15;;;;;;;12.23;10.40;;;13.10;91.00;;;;;;5086075;28;20269;-91
2021/09/20 07:09:42;;;;;;;11.95;10.15;;;13.00;91.00;;;;;;5081594;28;20221;-89
2021/09/20 07:12:09;;;;;;;12.73;10.80;;;13.10;91.00;;;;;;5085300;28;20221;-91
2021/09/20 07:14:36;;;;;;;11.95;10.68;;;13.10;91.00;;;;;;5077991;28;20310;-87
2021/09/20 07:17:05;;;;;;;13.15;10.65;;;13.00;91.00;;;;;;5068801;28;20275;-91
2021/09/20 07:19:32;;;;;;;11.95;10.63;;;12.90;91.00;;;;;;5067803;28;20332;-92
2021/09/20 07:21:59;;;;;;;11.95;10.13;;;12.90;91.00;;;;;;5067758;28;20285;-91
2021/09/20 07:24:41;;;;;;;12.25;10.95;;;13.00;91.00;;;;;;5075554;28;20248;-89
2021/09/20 07:27:08;;;;;;;12.98;10.75;;;13.00;91.00;;;;;;5077503;28;20225;-91
2021/09/20 07:29:35;;;;;;;17.05;10.75;;;13.00;91.00;;;;;;5070547;28;20289;-90
2021/09/20 07:32:51;;;;;;;13.40;11.50;;;13.00;91.00;;;;;;5073458;28;20186;-89
2021/09/20 07:59:49;;;;;;;13.55;11.45;;;13.50;91.10;;;;;;5069482;28;20274;-90
2021/09/20 08:02:49;;;;;;;14.35;11.25;;;13.60;90.30;;;;;;5068235;28;20213;-90
2021/09/20 08:48:27;;;;;;;13.80;11.40;;;14.10;88.70;;;;;;5709745;22;20213;-90
2021/09/20 08:51:48;;;;;;;12.90;11.55;;;14.40;87.70;;;;;;5057447;28;20233;-90
2021/09/20 08:54:17;;;;;;;12.30;11.10;;;14.40;86.50;;;;;;5050541;28;20264;-89
2021/09/20 09:00:26;;;;;;;12.30;11.00;;;13.80;85.40;;;;;;5038099;28;20367;-89
2021/09/20 09:02:53;;;;;;;14.05;10.95;;;13.80;88.40;;;;;;5056420;28;20194;-94
2021/09/20 09:17:23;;;;;;;11.48;10.32;;;14.80;82.30;;;;;;5250329;22;20218;-93
2021/09/20 09:19:53;;;;;;;10.38;9.27;;;15.10;81.60;;;;;;5019241;28;20229;-93
2021/09/20 09:22:22;;;;;;;9.68;8.70;;;15.10;78.20;;;;;;5021316;28;20571;-90
2021/09/20 09:25:10;;;;;;;11.32;9.10;;;15.20;77.40;;;;;;5027695;28;20237;-95
2021/09/20 09:27:37;;;;;;;12.48;9.95;;;15.20;77.40;;;;;;5026222;28;20205;-95
2021/09/20 09:35:53;;;;;;;11.10;9.40;;;15.90;77.10;;;;;;5027379;28;20289;-92
2021/09/20 09:38:21;;;;;;;13.75;9.30;;;16.20;70.60;;;;;;5026335;28;20239;-92
2021/09/20 09:40:54;;;;;;;12.05;9.50;;;15.70;70.10;;;;;;5026680;28;20650;-91
2021/09/20 09:43:27;;;;;;;12.02;8.57;;;15.50;70.30;;;;;;5021951;28;20282;-92
2021/09/20 09:45:55;;;;;;;12.43;8.57;;;15.90;68.80;;;;;;5035941;28;20202;-91
2021/09/20 09:48:26;;;;;;;10.25;9.02;;;16.50;67.20;;;;;;5023907;28;20230;-91
2021/09/20 09:54:42;;;;;;;9.60;8.32;;;16.50;63.30;;;;;;5035001;28;20229;-91
2021/09/20 10:00:34;;;;;;;8.32;7.47;;;17.20;63.70;;;;;;5034694;28;20176;-91
2021/09/20 10:06:21;;;;;;;7.88;7.13;;;18.00;55.30;;;;;;5035311;28;20260;-91
2021/09/20 10:08:49;;;;;;;8.43;7.50;;;18.40;51.00;;;;;;5037307;28;20213;-89
2021/09/20 10:11:16;;;;;;;8.38;7.60;;;18.60;49.60;;;;;;5038827;28;20677;-89
2021/09/20 10:13:49;;;;;;;11.05;8.32;;;18.20;51.10;;;;;;5750969;22;20243;-89
2021/09/20 10:16:18;;;;;;;7.72;6.93;;;18.10;54.20;;;;;;5063450;28;20204;-91
2021/09/20 10:18:45;;;;;;;12.50;8.75;;;17.90;50.10;;;;;;5053447;28;20252;-91
2021/09/20 10:21:12;;;;;;;10.95;8.10;;;17.50;53.60;;;;;;5065265;28;20201;-90
2021/09/20 10:23:41;;;;;;;11.25;8.52;;;17.30;57.10;;;;;;5056840;28;20229;-92
2021/09/20 10:26:08;;;;;;;11.30;8.40;;;17.60;57.00;;;;;;5053716;28;20208;-91
2021/09/20 10:28:36;;;;;;;9.98;7.90;;;17.40;54.60;;;;;;5055866;28;20692;-91
2021/09/20 10:31:03;;;;;;;7.90;7.20;;;17.70;56.50;;;;;;5053865;28;20205;-89
2021/09/20 10:33:30;;;;;;;8.32;7.25;;;18.10;53.10;;;;;;5060346;28;20231;-86
2021/09/20 10:35:57;;;;;;;9.90;8.07;;;18.60;52.60;;;;;;5060894;28;20208;-86
2021/09/20 10:38:30;;;;;;;7.65;6.95;;;18.40;44.80;;;;;;5057885;28;20226;-87
2021/09/20 10:41:21;;;;;;;8.35;7.50;;;18.20;46.50;;;;;;5056641;28;20190;-85
2021/09/20 10:43:49;;;;;;;7.88;7.13;;;18.00;51.10;;;;;;5055564;28;20771;-85
2021/09/20 10:46:21;;;;;;;9.50;7.47;;;17.50;53.60;;;;;;5053590;28;20293;-91
2021/09/20 10:48:51;;;;;;;8.65;7.85;;;17.60;53.70;;;;;;5056137;28;20237;-85
2021/09/20 10:51:22;;;;;;;7.20;6.22;;;17.30;53.40;;;;;;5049403;28;20288;-85
2021/09/20 10:54:22;;;;;;;6.43;5.82;;;16.70;52.90;;;;;;5078110;28;20666;-87
2021/09/20 11:00:25;;;;;;;7.45;6.72;;;17.50;52.00;;;;;;5045408;28;20257;-82
2021/09/20 11:02:53;;;;;;;7.45;6.75;;;17.30;53.40;;;;;;5051747;28;20618;-87
2021/09/20 11:05:26;;;;;;;8.75;7.10;;;16.50;56.60;;;;;;5052642;28;20206;-85
2021/09/20 11:07:53;;;;;;;7.90;6.90;;;16.60;57.20;;;;;;5058574;28;20618;-85
2021/09/20 11:10:30;;;;;;;9.75;7.22;;;16.60;52.80;;;;;;5055906;28;20228;-88
2021/09/20 11:13:02;;;;;;;7.65;6.60;;;16.70;52.90;;;;;;5056167;28;20222;-86
2021/09/20 11:15:38;;;;;;;7.47;6.30;;;16.80;53.00;;;;;;5031490;28;20225;-85
2021/09/20 11:18:05;;;;;;;7.18;6.45;;;16.90;53.10;;;;;;5031357;28;20230;-88
2021/09/20 11:20:39;;;;;;;6.85;6.00;;;16.80;49.20;;;;;;5035045;28;20209;-87
2021/09/20 11:23:35;;;;;;;8.35;7.63;;;17.10;50.40;;;;;;5040342;28;20201;-88
2021/09/20 11:26:20;;;;;;;7.05;6.00;;;16.90;50.10;;;;;;5019282;28;20202;-91
2021/09/20 11:28:53;;;;;;;7.18;6.40;;;17.00;52.30;;;;;;5040782;28;20236;-89
2021/09/20 11:31:27;;;;;;;7.88;6.90;;;16.70;52.90;;;;;;5034553;28;20290;-89
2021/09/20 11:33:55;;;;;;;6.30;5.70;;;16.80;48.70;;;;;;5041379;28;20226;-89
2021/09/20 11:36:34;;;;;;;6.88;6.13;;;16.70;51.20;;;;;;5030654;28;20573;-91
2021/09/20 11:39:19;;;;;;;8.95;5.95;;;16.70;50.40;;;;;;5032888;28;20238;-89
2021/09/20 11:41:55;;;;;;;6.18;5.57;;;16.80;50.60;;;;;;5037638;28;20252;-87
2021/09/20 11:44:27;;;;;;;6.78;6.07;;;16.90;53.10;;;;;;5036552;28;20290;-91
2021/09/20 11:46:57;;;;;;;7.43;6.72;;;16.80;48.10;;;;;;5029837;28;20205;-90
2021/09/20 11:49:28;;;;;;;8.85;6.90;;;16.60;50.80;;;;;;5028642;28;20262;-89
2021/09/20 11:51:57;;;;;;;9.07;6.80;;;16.60;51.20;;;;;;5024062;28;20238;-91
2021/09/20 11:54:30;;;;;;;8.73;7.03;;;16.60;52.80;;;;;;5033093;28;20222;-88
2021/09/20 11:57:11;;;;;;;7.50;6.75;;;16.50;52.80;;;;;;5027968;28;20270;-88
2021/09/20 11:59:37;;;;;;;8.82;7.30;;;16.30;52.50;;;;;;5039689;28;20218;-90
2021/09/20 12:02:06;;;;;;;7.22;6.53;;;16.10;52.30;;;;;;5044694;28;20230;-88
2021/09/20 12:04:47;;;;;;;8.30;7.50;;;15.90;54.20;;;;;;5032125;28;20233;-89
2021/09/20 12:07:27;;;;;;;7.38;6.68;;;15.70;53.80;;;;;;5021656;28;20195;-88
2021/09/20 12:09:54;;;;;;;8.00;6.72;;;15.90;56.40;;;;;;5023843;28;20254;-89
2021/09/20 12:12:21;;;;;;;9.23;7.30;;;16.00;58.20;;;;;;5033423;28;20226;-91
2021/09/20 12:14:55;;;;;;;7.68;6.88;;;16.20;56.70;;;;;;5023737;28;20237;-86
2021/09/20 12:17:24;;;;;;;7.80;7.00;;;16.20;56.00;;;;;;5029788;28;20203;-91
2021/09/20 12:19:54;;;;;;;8.90;7.80;;;16.30;55.80;;;;;;5038753;28;20219;-89
2021/09/20 12:22:38;;;;;;;8.63;7.38;;;16.00;55.20;;;;;;5030858;28;20226;-90
2021/09/20 12:25:23;;;;;;;8.98;7.05;;;15.90;55.70;;;;;;5036749;28;20234;-89
2021/09/20 12:27:50;;;;;;;8.23;7.22;;;16.20;55.80;;;;;;5037284;28;20262;-89
2021/09/20 12:30:18;;;;;;;10.27;7.45;;;16.40;52.60;;;;;;5031544;28;20295;-89
2021/09/20 12:32:47;;;;;;;7.82;7.03;;;16.70;52.90;;;;;;5040947;28;20658;-89
2021/09/20 12:35:14;;;;;;;8.77;7.10;;;16.90;53.10;;;;;;5025332;28;20229;-90
2021/09/20 12:37:42;;;;;;;8.68;7.43;;;16.90;49.10;;;;;;5026023;28;20321;-90
2021/09/20 12:40:20;;;;;;;7.63;6.90;;;16.90;50.80;;;;;;5032207;28;20226;-91
2021/09/20 12:43:09;;;;;;;8.27;7.43;;;16.90;51.90;;;;;;5035132;28;20300;-90
2021/09/20 12:45:38;;;;;;;8.00;7.20;;;17.10;51.10;;;;;;5027097;28;20213;-91
2021/09/20 12:48:09;;;;;;;8.35;7.30;;;17.00;49.60;;;;;;5025514;28;20216;-89
2021/09/20 12:50:40;;;;;;;9.20;7.13;;;16.90;52.00;;;;;;5016075;28;20726;-92
2021/09/20 12:54:03;;;;;;;8.55;7.72;;;16.90;52.80;;;;;;5034813;28;20202;-93
2021/09/20 12:56:33;;;;;;;8.07;7.28;;;17.20;48.40;;;;;;5025652;28;20238;-93
2021/09/20 12:59:15;;;;;;;7.75;6.90;;;17.10;48.40;;;;;;5028662;28;20242;-92
2021/09/20 13:02:00;;;;;;;8.88;6.85;;;17.40;47.80;;;;;;5027721;28;20734;-91
2021/09/20 13:04:33;;;;;;;11.00;7.65;;;17.70;45.70;;;;;;5028419;28;20332;-92
2021/09/20 13:10:37;;;;;;;8.45;7.60;;;17.40;45.60;;;;;;5037574;28;20294;-91
2021/09/20 13:13:05;;;;;;;8.90;8.10;;;17.50;45.00;;;;;;5216359;22;20254;-88
2021/09/20 13:25:58;;;;;;;10.13;7.82;;;17.00;50.90;;;;;;5057681;28;20186;-90
2021/09/20 13:28:28;;;;;;;10.45;7.97;;;16.90;49.20;;;;;;5036370;28;20226;-92
2021/09/20 13:30:58;;;;;;;8.55;7.70;;;16.60;50.10;;;;;;5049633;28;20402;-91
2021/09/20 13:33:27;;;;;;;7.72;6.97;;;16.60;52.00;;;;;;5058907;28;20232;-92
2021/09/20 13:35:56;;;;;;;7.85;7.10;;;16.70;50.70;;;;;;5039824;28;20289;-90
2021/09/20 13:38:24;;;;;;;8.32;7.38;;;16.70;50.50;;;;;;5037981;28;20230;-88
2021/09/20 13:41:22;;;;;;;8.70;6.80;;;16.80;53.00;;;;;;5043198;28;20194;-91
2021/09/20 13:43:50;;;;;;;7.93;7.13;;;16.80;52.10;;;;;;5062854;28;20288;-88
2021/09/20 13:47:11;;;;;;;8.02;7.07;;;16.50;51.50;;;;;;5055251;28;20660;-91
2021/09/20 13:49:38;;;;;;;8.48;6.40;;;16.40;52.60;;;;;;5061955;28;20253;-90
2021/09/20 13:52:52;;;;;;;9.38;6.50;;;16.40;52.60;;;;;;5067105;28;20221;-89
2021/09/20 13:55:23;;;;;;;7.55;6.85;;;16.70;52.90;;;;;;5067479;28;20229;-89
2021/09/20 13:57:51;;;;;;;8.27;7.18;;;16.90;51.00;;;;;;5058854;28;20281;-90
2021/09/20 14:00:19;;;;;;;8.70;6.47;;;16.90;50.70;;;;;;5084306;28;20213;-89
2021/09/20 14:06:07;;;;;;;8.05;6.97;;;17.00;50.70;;;;;;5065129;28;20235;-89
2021/09/20 14:08:34;;;;;;;8.98;6.70;;;16.80;50.20;;;;;;5080252;28;20225;-90
2021/09/20 14:11:02;;;;;;;8.45;6.93;;;16.70;49.20;;;;;;5056623;28;20205;-93
2021/09/20 14:16:11;;;;;;;7.97;6.30;;;16.50;50.60;;;;;;5042275;28;20220;-91
2021/09/20 14:18:38;;;;;;;7.80;6.38;;;16.50;52.70;;;;;;5055294;28;20222;-89
2021/09/20 14:21:05;;;;;;;10.20;6.68;;;16.50;52.70;;;;;;5036007;28;20206;-91
2021/09/20 14:23:32;;;;;;;6.75;6.13;;;16.60;49.70;;;;;;5029424;28;20706;-91
2021/09/20 14:25:58;;;;;;;7.70;7.00;;;16.60;51.40;;;;;;5034547;28;20233;-90
2021/09/20 14:28:25;;;;;;;7.55;6.57;;;16.40;52.60;;;;;;5035589;28;20760;-90
2021/09/20 14:30:55;;;;;;;7.43;6.72;;;16.30;52.50;;;;;;5031652;28;20208;-90
2021/09/20 14:33:22;;;;;;;7.57;6.78;;;16.30;52.50;;;;;;5034503;28;20287;-88
2021/09/20 14:35:49;;;;;;;8.82;6.93;;;16.30;52.70;;;;;;5033552;28;20201;-88
2021/09/20 14:38:15;;;;;;;8.48;6.57;;;16.10;52.30;;;;;;5042264;28;20274;-90
2021/09/20 14:40:42;;;;;;;7.68;6.97;;;16.00;52.30;;;;;;5041645;28;20572;-90
2021/09/20 14:43:10;;;;;;;7.75;7.05;;;15.90;52.20;;;;;;5026243;28;20222;-90
2021/09/20 14:45:37;;;;;;;8.68;7.10;;;15.80;52.10;;;;;;5022703;28;20643;-92
2021/09/20 14:48:09;;;;;;;7.05;6.45;;;15.90;52.30;;;;;;5039207;28;20302;-91
2021/09/20 14:50:36;;;;;;;8.18;6.63;;;15.90;52.20;;;;;;5039092;28;20206;-91
2021/09/20 14:53:03;;;;;;;6.75;5.75;;;15.80;52.10;;;;;;5027644;28;20826;-91
2021/09/20 14:55:30;;;;;;;7.60;6.28;;;16.00;52.80;;;;;;5021593;28;20969;-92
2021/09/20 14:57:57;;;;;;;6.70;6.10;;;16.20;52.50;;;;;;5026130;28;20205;-88
2021/09/20 15:00:25;;;;;;;8.35;6.90;;;16.20;52.40;;;;;;5038397;28;20313;-89
2021/09/20 15:02:52;;;;;;;7.82;6.57;;;16.20;52.40;;;;;;5032496;28;20199;-90
2021/09/20 15:05:22;;;;;;;6.97;6.38;;;16.20;52.40;;;;;;5028530;28;20245;-91
2021/09/20 15:07:49;;;;;;;6.63;6.03;;;15.90;52.20;;;;;;5036513;28;20202;-89
2021/09/20 15:10:18;;;;;;;6.72;6.03;;;15.80;53.20;;;;;;5025433;28;20222;-90
2021/09/20 15:12:45;;;;;;;6.93;6.18;;;15.70;52.10;;;;;;5024012;28;20292;-90
2021/09/20 15:15:15;;;;;;;7.20;6.50;;;15.60;53.60;;;;;;5031858;28;20233;-90
2021/09/20 15:17:42;;;;;;;6.70;6.10;;;15.70;54.50;;;;;;5036430;28;20199;-90
2021/09/20 15:20:10;;;;;;;5.90;5.40;;;15.70;53.70;;;;;;5029283;28;20317;-91
2021/09/20 15:22:39;;;;;;;6.30;5.70;;;15.70;52.00;;;;;;5033534;28;20565;-91
2021/09/20 15:25:08;;;;;;;6.40;5.80;;;15.70;52.00;;;;;;5027966;28;20245;-92
2021/09/20 15:27:35;;;;;;;6.70;6.10;;;15.50;53.00;;;;;;5022851;28;20206;-91
2021/09/20 15:30:03;;;;;;;7.45;6.03;;;15.50;56.20;;;;;;5031579;28;20338;-91
2021/09/20 15:32:31;;;;;;;6.95;5.68;;;15.40;55.00;;;;;;5019790;28;20516;-91
2021/09/20 15:35:02;;;;;;;7.63;5.72;;;15.30;54.00;;;;;;5021955;28;20230;-92
2021/09/20 15:37:29;;;;;;;5.70;5.18;;;15.30;54.30;;;;;;5027552;28;20286;-92
2021/09/20 15:39:57;;;;;;;6.28;5.68;;;15.30;53.80;;;;;;5023052;28;20227;-92
2021/09/20 15:42:24;;;;;;;7.05;6.35;;;15.30;54.90;;;;;;5030306;28;20205;-91
2021/09/20 15:44:52;;;;;;;7.60;5.95;;;15.40;54.60;;;;;;5023932;28;20236;-91
2021/09/20 15:47:19;;;;;;;8.63;6.53;;;15.40;55.20;;;;;;5029455;28;20202;-93
2021/09/20 15:49:46;;;;;;;8.10;6.07;;;15.30;55.50;;;;;;5027495;28;20245;-91
2021/09/20 15:52:13;;;;;;;6.15;5.55;;;15.20;54.80;;;;;;5026605;28;20646;-91
2021/09/20 15:54:40;;;;;;;6.35;5.70;;;15.10;55.50;;;;;;5025313;28;20553;-91
2021/09/20 15:57:09;;;;;;;6.53;5.63;;;15.10;56.50;;;;;;5024782;28;20520;-91
2021/09/20 15:59:36;;;;;;;6.00;5.40;;;15.00;57.60;;;;;;5026811;28;20227;-91
2021/09/20 16:02:04;;;;;;;5.88;5.28;;;15.00;59.20;;;;;;5035593;28;20226;-92
2021/09/20 16:04:31;;;;;;;9.38;5.95;;;14.90;60.70;;;;;;5034129;28;20218;-91
2021/09/20 16:06:58;;;;;;;5.20;4.72;;;14.90;63.60;;;;;;5046397;28;20661;-92
2021/09/20 16:09:25;;;;;;;7.13;5.53;;;14.90;66.70;;;;;;5033816;28;20228;-94
2021/09/20 16:11:52;;;;;;;5.82;5.25;;;14.70;66.30;;;;;;5035976;28;20199;-91
2021/09/20 16:14:20;;;;;;;6.22;5.63;;;14.70;66.30;;;;;;5042603;28;20240;-92
2021/09/20 16:16:47;;;;;;;6.28;5.63;;;14.50;67.70;;;;;;5037868;28;20223;-89
2021/09/20 16:19:14;;;;;;;8.15;5.60;;;14.40;67.30;;;;;;5051004;28;20240;-90
2021/09/20 16:21:41;;;;;;;7.63;6.20;;;14.30;65.00;;;;;;5033448;28;20218;-90
2021/09/20 16:27:30;;;;;;;6.30;5.53;;;14.20;63.00;;;;;;5051026;28;20657;-87
2021/09/20 16:30:30;;;;;;;5.95;5.35;;;14.20;65.80;;;;;;5027395;28;20246;-89
2021/09/20 16:32:57;;;;;;;6.47;5.18;;;14.30;71.10;;;;;;5038393;28;20210;-89
2021/09/20 16:35:24;;;;;;;7.75;5.75;;;14.20;73.00;;;;;;5048634;28;20292;-90
2021/09/20 16:41:13;;;;;;;6.45;5.00;;;13.90;71.30;;;;;;5046142;28;20593;-88
2021/09/20 16:44:02;;;;;;;6.10;5.50;;;13.90;73.30;;;;;;5045747;28;20214;-90
2021/09/20 17:24:35;;;;;;;7.82;6.30;;;13.20;80.50;;;;;;4969522;28;20548;-90
2021/09/20 17:27:02;;;;;;;8.85;6.15;;;13.20;79.40;;;;;;4945266;29;20214;-88
2021/09/20 17:43:12;;;;;;;8.68;5.40;;;13.10;84.40;;;;;;4928552;28;20248;-88
2021/09/20 17:45:39;;;;;;;6.65;5.60;;;13.00;82.90;;;;;;5037862;28;20608;-87
2021/09/20 17:48:07;;;;;;;6.70;5.80;;;12.90;84.50;;;;;;5040959;28;20514;-88
2021/09/20 17:50:34;;;;;;;7.80;5.80;;;12.90;85.60;;;;;;5031650;28;20198;-87
2021/09/20 17:53:01;;;;;;;6.18;5.45;;;12.90;85.00;;;;;;5039485;28;20205;-89
2021/09/20 17:55:28;;;;;;;6.60;5.65;;;12.80;85.30;;;;;;5049402;28;20258;-89
2021/09/20 17:57:55;;;;;;;7.50;6.45;;;12.90;85.90;;;;;;5039452;28;20222;-89
2021/09/20 18:00:23;;;;;;;9.50;6.20;;;12.80;86.70;;;;;;5037902;28;20256;-87
2021/09/20 18:02:51;;;;;;;7.45;5.97;;;12.80;86.70;;;;;;5039138;28;20203;-90
2021/09/20 18:05:19;;;;;;;8.38;5.80;;;12.70;87.90;;;;;;5038923;28;20222;-86
2021/09/20 18:07:47;;;;;;;10.05;5.78;;;12.60;88.20;;;;;;5050981;28;20206;-89
2021/09/20 18:10:15;;;;;;;8.30;6.70;;;12.50;89.30;;;;;;5041877;28;20267;-88
2021/09/20 18:12:42;;;;;;;9.52;5.72;;;12.40;90.00;;;;;;5052839;28;20253;-87
2021/09/20 18:15:13;;;;;;;6.80;5.90;;;12.40;90.50;;;;;;5041160;28;20234;-87
2021/09/20 18:17:42;;;;;;;7.60;6.60;;;12.40;90.50;;;;;;5031680;28;20203;-90
2021/09/20 18:20:10;;;;;;;9.60;6.45;;;12.20;90.80;;;;;;5039000;28;20407;-87
2021/09/20 18:22:39;;;;;;;8.10;6.82;;;12.20;90.80;;;;;;5032814;28;20209;-89
2021/09/20 18:25:07;;;;;;;7.40;6.45;;;12.20;91.10;;;;;;5022970;28;20234;-88
2021/09/20 18:27:34;;;;;;;7.90;6.63;;;12.10;90.80;;;;;;5026877;28;20207;-89
2021/09/20 18:30:01;;;;;;;8.48;7.22;;;12.10;91.10;;;;;;5026115;28;20239;-88
2021/09/20 18:32:28;;;;;;;9.68;7.32;;;12.10;91.40;;;;;;5026833;28;20230;-88
2021/09/20 18:35:08;;;;;;;8.65;7.35;;;12.10;91.70;;;;;;5040699;28;20234;-89
2021/09/20 18:37:35;;;;;;;7.70;6.93;;;12.00;92.00;;;;;;5062102;28;20193;-89
2021/09/20 18:40:02;;;;;;;9.43;7.07;;;12.10;92.20;;;;;;5056720;28;20231;-88
2021/09/20 18:42:56;;;;;;;9.18;7.07;;;12.00;92.00;;;;;;5059504;28;20237;-89
2021/09/20 18:45:25;;;;;;;9.65;7.38;;;12.10;92.30;;;;;;5048134;28;20768;-88
2021/09/20 18:47:52;;;;;;;9.90;8.07;;;12.20;92.40;;;;;;5046755;28;20195;-88
2021/09/20 18:50:21;;;;;;;8.27;7.32;;;12.20;92.60;;;;;;5041980;28;20301;-88
2021/09/20 18:52:49;;;;;;;9.38;7.93;;;12.30;92.50;;;;;;5059307;28;20208;-88
2021/09/20 18:55:16;;;;;;;10.23;7.85;;;12.30;92.50;;;;;;5033597;28;20293;-88
2021/09/20 18:57:44;;;;;;;8.32;7.43;;;12.30;92.80;;;;;;5045714;28;20233;-88
2021/09/20 19:00:14;;;;;;;10.43;7.60;;;12.40;92.70;;;;;;5025590;28;20232;-88
2021/09/20 19:02:41;;;;;;;10.05;8.07;;;12.40;92.70;;;;;;5035732;28;20205;-88
2021/09/20 19:05:10;;;;;;;9.50;7.95;;;12.40;92.80;;;;;;5059853;28;20206;-88
2021/09/20 19:07:39;;;;;;;10.55;8.75;;;12.40;92.80;;;;;;5018345;28;20226;-88
2021/09/20 19:10:07;;;;;;;12.38;9.20;;;12.40;92.80;;;;;;5039123;28;20205;-88
2021/09/20 19:12:35;;;;;;;12.07;9.40;;;12.30;92.80;;;;;;5030776;28;20226;-88
2021/09/20 19:15:01;;;;;;;11.82;9.55;;;12.30;92.80;;;;;;5036209;28;20203;-91
2021/09/20 19:17:28;;;;;;;10.45;9.10;;;12.20;92.80;;;;;;5038035;28;20202;-89
2021/09/20 19:19:56;;;;;;;14.45;9.38;;;12.00;93.00;;;;;;5035893;28;20373;-87
2021/09/20 19:22:31;;;;;;;13.13;9.38;;;11.90;93.30;;;;;;5037970;28;20258;-87
2021/09/20 19:25:00;;;;;;;10.57;9.30;;;11.80;93.50;;;;;;5032146;28;20293;-87
2021/09/20 19:27:27;;;;;;;10.60;9.18;;;11.80;93.60;;;;;;5040749;28;20321;-88
2021/09/20 19:29:54;;;;;;;11.63;9.93;;;11.70;93.70;;;;;;5034959;28;20250;-90
2021/09/20 19:32:21;;;;;;;11.98;9.63;;;11.70;93.60;;;;;;5037104;28;20282;-87
2021/09/20 19:34:48;;;;;;;10.82;9.45;;;11.80;93.70;;;;;;5032987;28;20297;-88
2021/09/20 19:37:15;;;;;;;16.25;12.10;;;11.90;93.80;;;;;;5039322;28;20254;-87
2021/09/20 19:39:42;;;;;;;12.13;10.57;;;12.00;93.80;;;;;;5033582;28;20315;-87
2021/09/20 19:42:10;;;;;;;13.68;10.77;;;12.10;93.70;;;;;;5040050;28;20225;-89
2021/09/20 19:44:38;;;;;;;14.65;10.32;;;12.00;93.60;;;;;;5043485;28;20293;-87
2021/09/20 19:47:06;;;;;;;11.10;9.80;;;11.90;93.80;;;;;;5040146;28;20202;-87
2021/09/20 19:49:34;;;;;;;12.35;8.95;;;12.10;93.80;;;;;;5043140;28;20254;-88
2021/09/20 19:52:02;;;;;;;11.25;9.10;;;12.00;93.70;;;;;;5030616;28;20205;-88
2021/09/20 19:54:31;;;;;;;9.40;8.40;;;12.00;93.90;;;;;;5036301;28;20288;-88
2021/09/20 19:57:13;;;;;;;11.27;9.48;;;12.00;93.70;;;;;;5045382;28;20266;-88
2021/09/20 19:59:40;;;;;;;10.45;9.00;;;11.90;93.60;;;;;;5039724;28;20236;-89
2021/09/20 20:02:14;;;;;;;11.88;9.60;;;11.80;93.70;;;;;;5051274;28;20194;-88
2021/09/20 20:04:41;;;;;;;12.38;9.57;;;11.70;94.00;;;;;;5035340;28;20310;-87
2021/09/20 20:07:08;;;;;;;12.25;10.02;;;11.60;94.30;;;;;;5049448;28;20199;-87
2021/09/20 20:09:35;;;;;;;12.20;9.55;;;11.70;94.60;;;;;;5046734;28;20575;-88
2021/09/20 20:12:02;;;;;;;11.27;9.98;;;11.70;94.60;;;;;;5054771;28;20203;-88
2021/09/20 20:14:30;;;;;;;10.55;9.45;;;11.80;94.60;;;;;;5042359;28;20222;-87
2021/09/20 20:16:57;;;;;;;14.70;10.15;;;11.90;94.50;;;;;;5045328;28;20205;-89
2021/09/20 20:19:28;;;;;;;11.90;10.48;;;11.80;94.40;;;;;;5039653;28;20528;-88
2021/09/20 20:21:56;;;;;;;13.07;10.45;;;11.80;94.50;;;;;;5034578;28;20266;-88
2021/09/20 20:24:23;;;;;;;10.88;9.70;;;11.80;94.70;;;;;;5033524;28;20234;-90